createdAt,value
2023-05-15T00:01:43.388Z,18.51
2023-05-15T00:04:16.853Z,18.46
2023-05-15T00:06:44.632Z,17.76
2023-05-15T00:09:18.841Z,18.26
2023-05-15T00:11:52.268Z,18.15
2023-05-15T00:14:25.656Z,18.20
2023-05-15T00:17:03.061Z,18.59
2023-05-15T00:19:36.949Z,18.50
2023-05-15T00:21:59.523Z,18.58
2023-05-15T00:24:23.328Z,18.07
2023-05-15T00:26:47.367Z,18.88
2023-05-15T00:29:21.034Z,19.09
2023-05-15T00:31:55.121Z,18.86
2023-05-15T00:34:30.045Z,19.33
2023-05-15T00:37:04.702Z,19.29
2023-05-15T00:39:38.906Z,18.85
2023-05-15T00:42:03.622Z,19.35
2023-05-15T00:44:28.876Z,19.47
2023-05-15T00:46:52.748Z,18.76
2023-05-15T00:49:28.686Z,18.97
2023-05-15T00:51:54.322Z,19.46
2023-05-15T00:54:20.086Z,19.90
2023-05-15T00:56:55.938Z,19.82
2023-05-15T00:59:19.468Z,19.39
2023-05-15T01:01:53.507Z,19.15
2023-05-15T01:04:27.380Z,19.70
2023-05-15T01:06:58.412Z,19.56
2023-05-15T01:09:27.132Z,19.87
2023-05-15T01:12:02.554Z,20.26
2023-05-15T01:14:28.646Z,20.30
2023-05-15T01:17:02.694Z,20.20
2023-05-15T01:19:37.017Z,19.79
2023-05-15T01:22:45.179Z,20.23
2023-05-15T01:25:56.001Z,19.69
2023-05-15T01:28:34.334Z,19.64
2023-05-15T01:31:12.575Z,19.83
2023-05-15T01:33:51.282Z,19.87
2023-05-15T01:36:30.385Z,20.36
2023-05-15T01:39:06.854Z,20.61
2023-05-15T01:41:45.752Z,20.24
2023-05-15T01:44:22.953Z,20.15
2023-05-15T01:46:53.338Z,20.18
2023-05-15T01:49:30.956Z,20.36
2023-05-15T01:51:58.388Z,20.14
2023-05-15T01:54:33.316Z,20.21
2023-05-15T01:57:00.933Z,20.82
2023-05-15T01:59:26.653Z,20.23
2023-05-15T02:02:02.390Z,20.11
2023-05-15T02:04:36.735Z,20.71
2023-05-15T02:07:16.442Z,20.48
2023-05-15T02:09:41.803Z,20.27
2023-05-15T02:12:19.791Z,20.45
2023-05-15T02:14:58.611Z,20.62
2023-05-15T02:17:32.620Z,21.01
2023-05-15T02:20:11.591Z,21.10
2023-05-15T02:22:38.201Z,21.50
2023-05-15T02:24:53.417Z,21.58
2023-05-15T02:27:17.408Z,21.35
2023-05-15T02:29:58.812Z,20.97
2023-05-15T02:32:43.961Z,21.12
2023-05-15T02:35:22.694Z,21.64
2023-05-15T02:38:00.137Z,21.70
2023-05-15T02:40:24.582Z,21.95
2023-05-15T02:42:53.228Z,22.07
2023-05-15T02:45:23.156Z,22.50
2023-05-15T02:47:47.072Z,22.69
2023-05-15T02:50:21.850Z,22.73
2023-05-15T02:52:50.131Z,22.64
2023-05-15T02:55:24.775Z,22.88
2023-05-15T02:57:53.545Z,22.85
2023-05-15T03:00:52.466Z,22.88
2023-05-15T03:02:47.706Z,23.40
2023-05-15T03:05:22.265Z,23.39
2023-05-15T03:07:45.502Z,23.48
2023-05-15T03:10:12.035Z,23.64
2023-05-15T03:13:05.877Z,23.93
2023-05-15T03:15:39.529Z,23.99
2023-05-15T03:21:02.712Z,24.30
2023-05-15T03:23:34.596Z,24.53
2023-05-15T03:26:00.768Z,24.59
2023-05-15T03:28:33.553Z,24.87
2023-05-15T03:31:00.720Z,25.12
2023-05-15T03:33:35.071Z,25.28
2023-05-15T03:35:58.702Z,25.58
2023-05-15T03:38:32.495Z,25.95
2023-05-15T03:40:56.130Z,26.47
2023-05-15T03:43:20.378Z,26.75
2023-05-15T03:45:45.508Z,26.85
2023-05-15T03:48:08.577Z,27.01
2023-05-15T03:50:43.781Z,27.24
2023-05-15T03:53:17.140Z,27.45
2023-05-15T03:55:41.936Z,27.80
2023-05-15T03:57:59.082Z,28.10
2023-05-15T04:00:32.393Z,28.29
2023-05-15T04:03:05.853Z,28.36
2023-05-15T04:05:25.942Z,28.26
2023-05-15T04:08:13.589Z,28.51
2023-05-15T04:10:39.013Z,28.73
2023-05-15T04:13:05.189Z,28.89
2023-05-15T04:15:32.962Z,29.27
2023-05-15T04:18:06.664Z,29.33
2023-05-15T04:20:34.898Z,29.43
2023-05-15T04:23:07.125Z,29.43
2023-05-15T04:25:40.902Z,29.52
2023-05-15T04:28:16.229Z,29.80
2023-05-15T04:30:50.604Z,29.98
2023-05-15T04:33:25.069Z,29.89
2023-05-15T04:35:54.317Z,29.78
2023-05-15T04:38:10.715Z,29.72
2023-05-15T04:43:14.301Z,29.88
2023-05-15T04:45:38.749Z,29.97
2023-05-15T04:48:06.429Z,30.08
2023-05-15T04:50:39.909Z,29.82
2023-05-15T04:52:59.453Z,29.91
2023-05-15T04:55:33.812Z,29.90
2023-05-15T04:57:55.026Z,30.04
2023-05-15T05:00:30.488Z,30.07
2023-05-15T05:03:05.898Z,30.29
2023-05-15T05:05:32.530Z,30.32
2023-05-15T05:07:57.546Z,30.47
2023-05-15T05:10:31.754Z,30.40
2023-05-15T05:13:06.353Z,30.72
2023-05-15T05:15:29.093Z,30.87
2023-05-15T05:18:04.279Z,30.79
2023-05-15T05:20:37.843Z,30.96
2023-05-15T05:23:11.881Z,31.24
2023-05-15T05:25:45.848Z,31.28
2023-05-15T05:28:20.084Z,31.42
2023-05-15T05:30:54.776Z,31.70
2023-05-15T05:33:29.123Z,31.96
2023-05-15T05:35:52.943Z,32.21
2023-05-15T05:38:27.637Z,32.42
2023-05-15T05:41:02.490Z,32.67
2023-05-15T05:43:34.686Z,32.87
2023-05-15T05:45:57.512Z,33.06
2023-05-15T05:51:05.698Z,33.17
2023-05-15T05:53:40.058Z,33.38
2023-05-15T05:56:14.086Z,33.26
2023-05-15T05:58:48.676Z,33.39
2023-05-15T06:01:25.947Z,33.59
2023-05-15T06:03:59.792Z,33.78
2023-05-15T06:06:33.921Z,33.75
2023-05-15T06:09:00.726Z,33.45
2023-05-15T06:11:34.577Z,33.64
2023-05-15T06:14:09.555Z,33.98
2023-05-15T06:16:43.288Z,34.04
2023-05-15T06:19:18.344Z,33.91
2023-05-15T06:21:45.736Z,33.75
2023-05-15T06:24:08.503Z,33.79
2023-05-15T06:26:28.794Z,33.70
2023-05-15T06:29:03.855Z,33.72
2023-05-15T06:31:26.930Z,33.71
2023-05-15T06:34:00.792Z,33.64
2023-05-15T06:36:35.112Z,33.61
2023-05-15T06:39:11.983Z,33.75
2023-05-15T06:41:44.424Z,33.65
2023-05-15T06:44:17.932Z,33.73
2023-05-15T06:46:54.589Z,33.73
2023-05-15T06:49:28.692Z,33.90
2023-05-15T06:52:02.753Z,33.95
2023-05-15T06:54:25.826Z,33.78
2023-05-15T06:57:01.152Z,33.82
2023-05-15T06:59:36.955Z,33.76
2023-05-15T07:02:10.882Z,33.50
2023-05-15T07:04:45.571Z,33.58
2023-05-15T07:07:08.179Z,33.54
2023-05-15T07:09:42.326Z,33.23
2023-05-15T07:12:17.592Z,33.16
2023-05-15T07:14:52.016Z,33.18
2023-05-15T07:17:26.605Z,33.26
2023-05-15T07:19:54.071Z,33.14
2023-05-15T07:22:31.427Z,33.06
2023-05-15T07:25:09.102Z,32.91
2023-05-15T07:27:43.013Z,32.92
2023-05-15T07:30:21.274Z,32.92
2023-05-15T07:32:55.478Z,32.78
2023-05-15T07:35:29.201Z,32.82
2023-05-15T07:38:04.458Z,32.70
2023-05-15T07:40:31.302Z,32.84
2023-05-15T07:42:54.041Z,32.68
2023-05-15T07:45:28.676Z,32.42
2023-05-15T07:48:02.613Z,32.23
2023-05-15T07:50:38.081Z,32.29
2023-05-15T07:53:12.408Z,32.28
2023-05-15T07:55:47.734Z,32.09
2023-05-15T07:58:21.952Z,31.87
2023-05-15T08:00:57.653Z,31.85
2023-05-15T08:03:31.854Z,31.54
2023-05-15T08:06:06.077Z,31.56
2023-05-15T08:08:40.521Z,31.54
2023-05-15T08:11:14.418Z,31.37
2023-05-15T08:13:48.081Z,31.31
2023-05-15T08:16:22.015Z,31.34
2023-05-15T08:18:59.801Z,31.27
2023-05-15T08:21:26.253Z,31.23
2023-05-15T08:24:00.213Z,31.16
2023-05-15T08:26:34.229Z,31.29
2023-05-15T08:29:08.102Z,31.32
2023-05-15T08:31:41.705Z,31.36
2023-05-15T08:34:15.600Z,31.15
2023-05-15T08:36:42.338Z,31.22
2023-05-15T08:39:16.972Z,31.24
2023-05-15T08:41:56.416Z,31.24
2023-05-15T08:44:29.740Z,31.20
2023-05-15T08:47:04.742Z,31.15
2023-05-15T08:49:47.511Z,31.25
2023-05-15T08:52:22.238Z,31.12
2023-05-15T08:54:58.039Z,31.08
2023-05-15T08:57:33.072Z,31.08
2023-05-15T09:00:08.949Z,31.10
2023-05-15T09:02:35.722Z,31.00
2023-05-15T09:05:12.378Z,31.04
2023-05-15T09:07:48.290Z,30.80
2023-05-15T09:10:22.518Z,30.92
2023-05-15T09:12:53.882Z,30.65
2023-05-15T09:15:26.157Z,30.57
2023-05-15T09:18:01.551Z,30.41
2023-05-15T09:20:35.972Z,34.69
2023-05-15T09:23:03.520Z,37.59
2023-05-15T09:25:54.100Z,39.09
2023-05-15T09:28:39.759Z,42.32
2023-05-15T09:31:13.193Z,44.22
2023-05-15T09:33:41.903Z,45.23
2023-05-15T09:36:11.313Z,47.15
2023-05-15T09:38:50.566Z,47.69
2023-05-15T09:41:31.636Z,48.69
2023-05-15T09:44:04.974Z,50.63
2023-05-15T09:46:41.848Z,51.83
2023-05-15T09:49:17.083Z,52.19
2023-05-15T09:51:53.436Z,52.98
2023-05-15T09:54:31.359Z,53.74
2023-05-15T09:57:15.062Z,54.67
2023-05-15T09:59:53.012Z,55.06
2023-05-15T10:02:33.372Z,56.07
2023-05-15T10:05:15.189Z,56.91
2023-05-15T10:07:39.416Z,57.06
2023-05-15T10:10:03.350Z,57.79
2023-05-15T10:12:37.932Z,57.58
2023-05-15T10:15:14.817Z,58.10
2023-05-15T10:17:51.737Z,58.99
2023-05-15T10:20:27.448Z,58.99
2023-05-15T10:23:02.002Z,60.89
2023-05-15T10:25:42.361Z,61.72
2023-05-15T10:28:17.849Z,61.42
2023-05-15T10:30:42.885Z,60.94
2023-05-15T10:33:18.573Z,61.19
2023-05-15T10:35:54.532Z,61.93
2023-05-15T10:38:22.785Z,62.90
2023-05-15T10:40:47.885Z,62.56
2023-05-15T10:43:18.676Z,63.45
2023-05-15T10:45:43.085Z,64.44
2023-05-15T10:48:13.617Z,65.02
2023-05-15T10:50:39.792Z,64.54
2023-05-15T10:53:15.991Z,65.74
2023-05-15T10:55:51.776Z,65.94
2023-05-15T10:58:29.341Z,65.69
2023-05-15T11:01:04.390Z,66.52
2023-05-15T11:03:49.669Z,66.07
2023-05-15T11:06:19.070Z,65.84
2023-05-15T11:08:46.401Z,65.85
2023-05-15T11:11:10.790Z,65.79
2023-05-15T11:13:53.332Z,65.73
2023-05-15T11:17:02.683Z,65.75
2023-05-15T11:19:59.423Z,66.70
2023-05-15T11:22:39.860Z,66.61
2023-05-15T11:25:15.016Z,66.84
2023-05-15T11:27:49.689Z,66.95
2023-05-15T11:30:26.992Z,67.31
2023-05-15T11:33:04.967Z,67.03
2023-05-15T11:35:30.632Z,67.09
2023-05-15T11:38:05.952Z,67.33
2023-05-15T11:40:50.393Z,67.55
2023-05-15T11:43:29.037Z,67.47
2023-05-15T11:45:54.140Z,68.97
2023-05-15T11:48:40.543Z,68.36
2023-05-15T11:51:23.060Z,68.62
2023-05-15T11:53:58.150Z,68.77
2023-05-15T11:56:32.730Z,69.13
2023-05-15T11:59:07.532Z,70.01
2023-05-15T12:01:48.939Z,69.97
2023-05-15T12:04:24.745Z,70.62
2023-05-15T12:07:00.940Z,70.75
2023-05-15T12:09:37.416Z,70.67
2023-05-15T12:12:16.144Z,71.73
2023-05-15T12:14:49.970Z,71.54
2023-05-15T12:17:24.557Z,72.29
2023-05-15T12:19:49.769Z,71.83
2023-05-15T12:22:23.978Z,72.49
2023-05-15T12:24:48.873Z,72.52
2023-05-15T12:27:24.758Z,72.39
2023-05-15T12:29:59.434Z,72.47
2023-05-15T12:32:35.029Z,72.86
2023-05-15T12:35:11.365Z,72.55
2023-05-15T12:37:45.829Z,72.59
2023-05-15T12:40:24.233Z,72.93
2023-05-15T12:43:00.196Z,72.76
2023-05-15T12:48:05.601Z,72.75
2023-05-15T12:50:40.998Z,72.95
2023-05-15T12:53:06.235Z,72.88
2023-05-15T12:55:44.745Z,72.83
2023-05-15T12:58:20.774Z,73.02
2023-05-15T13:00:59.930Z,72.93
2023-05-15T13:03:35.497Z,73.13
2023-05-15T13:06:10.123Z,73.05
2023-05-15T13:08:44.253Z,73.16
2023-05-15T13:11:17.470Z,73.39
2023-05-15T13:13:52.712Z,73.90
2023-05-15T13:16:28.079Z,74.15
2023-05-15T13:18:54.722Z,73.95
2023-05-15T13:21:17.668Z,74.09
2023-05-15T13:23:52.848Z,74.02
2023-05-15T13:26:26.476Z,74.31
2023-05-15T13:29:00.690Z,74.14
2023-05-15T13:31:35.888Z,74.37
2023-05-15T13:34:09.616Z,74.41
2023-05-15T13:36:32.523Z,74.40
2023-05-15T13:39:05.908Z,74.55
2023-05-15T13:41:32.863Z,74.53
2023-05-15T13:44:07.618Z,74.88
2023-05-15T13:46:42.144Z,75.66
2023-05-15T13:49:09.178Z,75.49
2023-05-15T13:51:43.322Z,76.10
2023-05-15T13:54:17.564Z,76.05
2023-05-15T13:56:45.544Z,75.92
2023-05-15T13:59:18.536Z,76.10
2023-05-15T14:01:41.686Z,76.07
2023-05-15T14:04:14.925Z,76.06
2023-05-15T14:06:49.827Z,75.84
2023-05-15T14:09:13.297Z,76.16
2023-05-15T14:11:46.731Z,75.86
2023-05-15T14:14:56.493Z,75.82
2023-05-15T14:17:09.220Z,75.97
2023-05-15T14:19:44.997Z,75.66
2023-05-15T14:22:18.559Z,75.57
2023-05-15T14:24:54.968Z,75.45
2023-05-15T14:27:31.119Z,75.48
2023-05-15T14:30:06.057Z,75.65
2023-05-15T14:32:33.648Z,75.63
2023-05-15T14:35:09.290Z,75.88
2023-05-15T14:37:44.347Z,76.05
2023-05-15T14:40:19.204Z,75.83
2023-05-15T14:42:52.180Z,76.37
2023-05-15T14:45:17.474Z,76.31
2023-05-15T14:47:39.848Z,76.85
2023-05-15T14:50:04.450Z,76.65
2023-05-15T14:52:38.122Z,76.64
2023-05-15T14:55:13.912Z,76.74
2023-05-15T14:57:50.447Z,76.73
2023-05-15T15:00:20.729Z,76.95
2023-05-15T15:02:47.673Z,76.64
2023-05-15T15:05:22.020Z,76.67
2023-05-15T15:08:10.115Z,76.64
2023-05-15T15:10:46.088Z,76.65
2023-05-15T15:13:18.860Z,76.91
2023-05-15T15:15:53.122Z,76.97
2023-05-15T15:18:26.847Z,76.86
2023-05-15T15:21:00.996Z,77.07
2023-05-15T15:23:35.080Z,76.83
2023-05-15T15:26:08.452Z,77.05
2023-05-15T15:28:43.411Z,76.96
2023-05-15T15:31:20.684Z,77.12
2023-05-15T15:33:55.159Z,76.94
2023-05-15T15:36:17.569Z,77.09
2023-05-15T15:38:52.264Z,76.87
2023-05-15T15:41:26.527Z,76.63
2023-05-15T15:43:59.661Z,76.44
2023-05-15T15:46:34.859Z,76.59
2023-05-15T15:49:09.090Z,76.50
2023-05-15T15:51:46.295Z,76.55
2023-05-15T15:54:20.310Z,76.81
2023-05-15T15:56:54.884Z,76.83
2023-05-15T15:59:29.450Z,76.46
2023-05-15T16:01:54.973Z,76.34
2023-05-15T16:04:28.912Z,76.05
2023-05-15T16:07:02.304Z,76.08
2023-05-15T16:09:37.781Z,76.52
2023-05-15T16:12:12.472Z,76.85
2023-05-15T16:14:47.093Z,76.99
2023-05-15T16:17:22.138Z,76.93
2023-05-15T16:19:58.152Z,76.50
2023-05-15T16:22:32.898Z,76.20
2023-05-15T16:25:08.754Z,76.16
2023-05-15T16:27:42.311Z,76.30
2023-05-15T16:30:19.155Z,76.31
2023-05-15T16:33:04.746Z,76.92
2023-05-15T16:35:24.484Z,77.15
2023-05-15T16:37:51.500Z,77.41
2023-05-15T16:40:28.417Z,77.48
2023-05-15T16:43:02.628Z,77.60
2023-05-15T16:45:32.025Z,77.43
2023-05-15T16:48:05.833Z,77.13
2023-05-15T16:50:41.831Z,76.94
2023-05-15T16:53:16.616Z,76.71
2023-05-15T16:55:51.905Z,76.26
2023-05-15T16:58:24.980Z,76.17
2023-05-15T17:00:59.340Z,75.76
2023-05-15T17:03:34.201Z,75.39
2023-05-15T17:06:09.411Z,75.47
2023-05-15T17:08:43.801Z,75.41
2023-05-15T17:11:17.784Z,75.49
2023-05-15T17:13:51.831Z,75.17
2023-05-15T17:16:27.214Z,75.10
2023-05-15T17:19:01.295Z,74.51
2023-05-15T17:21:35.458Z,74.48
2023-05-15T17:24:09.889Z,74.57
2023-05-15T17:26:43.612Z,74.42
2023-05-15T17:29:25.949Z,74.53
2023-05-15T17:32:00.791Z,73.76
2023-05-15T17:34:34.330Z,73.45
2023-05-15T17:37:09.003Z,73.54
2023-05-15T17:39:43.536Z,73.44
2023-05-15T17:42:19.084Z,72.95
2023-05-15T17:44:53.652Z,72.58
2023-05-15T17:47:21.120Z,72.53
2023-05-15T17:49:54.041Z,72.20
2023-05-15T17:52:28.182Z,71.99
2023-05-15T17:55:02.961Z,71.63
2023-05-15T17:57:36.866Z,71.72
2023-05-15T18:00:13.475Z,71.65
2023-05-15T18:02:28.720Z,71.74
2023-05-15T18:05:03.493Z,71.81
2023-05-15T18:07:30.868Z,71.81
2023-05-15T18:10:04.872Z,71.66
2023-05-15T18:12:40.337Z,71.74
2023-05-15T18:15:15.386Z,71.86
2023-05-15T18:17:49.644Z,71.97
2023-05-15T18:20:13.450Z,71.86
2023-05-15T18:22:47.194Z,71.87
2023-05-15T18:25:21.207Z,71.45
2023-05-15T18:27:55.804Z,71.61
2023-05-15T18:30:30.165Z,71.27
2023-05-15T18:33:05.035Z,71.36
2023-05-15T18:35:40.541Z,70.79
2023-05-15T18:38:14.182Z,70.59
2023-05-15T18:40:51.862Z,69.67
2023-05-15T18:43:25.842Z,69.83
2023-05-15T18:46:04.251Z,69.90
2023-05-15T18:48:38.369Z,69.68
2023-05-15T18:51:02.779Z,69.47
2023-05-15T18:53:37.468Z,69.55
2023-05-15T18:56:12.502Z,69.98
2023-05-15T18:58:48.631Z,70.40
2023-05-15T19:01:21.914Z,70.44
2023-05-15T19:03:55.380Z,70.29
2023-05-15T19:06:29.854Z,70.43
2023-05-15T19:09:02.985Z,70.13
2023-05-15T19:11:30.128Z,69.93
2023-05-15T19:14:03.825Z,68.58
2023-05-15T19:16:38.590Z,68.52
2023-05-15T19:19:06.716Z,67.79
2023-05-15T19:21:43.315Z,67.85
2023-05-15T19:24:21.522Z,67.07
2023-05-15T19:26:44.859Z,66.13
2023-05-15T19:29:18.673Z,66.20
2023-05-15T19:31:46.861Z,65.72
2023-05-15T19:37:08.041Z,66.33
2023-05-15T19:39:35.059Z,66.06
2023-05-15T19:42:08.908Z,65.82
2023-05-15T19:44:35.760Z,65.98
2023-05-15T19:46:57.695Z,65.97
2023-05-15T19:49:33.579Z,66.55
2023-05-15T19:51:57.613Z,66.32
2023-05-15T19:54:23.448Z,65.93
2023-05-15T19:56:57.368Z,66.10
2023-05-15T19:59:31.842Z,65.88
2023-05-15T20:04:54.901Z,64.95
2023-05-15T20:07:30.897Z,64.17
2023-05-15T20:10:04.803Z,63.74
2023-05-15T20:12:28.748Z,64.22
2023-05-15T20:15:02.827Z,64.35
2023-05-15T20:17:36.888Z,64.08
2023-05-15T20:20:00.761Z,64.33
2023-05-15T20:22:35.947Z,64.36
2023-05-15T20:25:10.503Z,64.44
2023-05-15T20:27:44.700Z,64.93
2023-05-15T20:30:19.548Z,65.22
2023-05-15T20:32:53.188Z,65.43
2023-05-15T20:35:22.208Z,65.27
2023-05-15T20:37:55.228Z,65.81
2023-05-15T20:40:18.367Z,65.84
2023-05-15T20:42:53.477Z,66.09
2023-05-15T20:45:28.818Z,66.34
2023-05-15T20:48:02.839Z,66.58
2023-05-15T20:50:37.888Z,66.50
2023-05-15T20:53:10.903Z,66.79
2023-05-15T20:55:45.009Z,66.99
2023-05-15T20:58:18.658Z,67.14
2023-05-15T21:00:53.447Z,67.76
2023-05-15T21:03:16.019Z,67.82
2023-05-15T21:05:50.499Z,68.52
2023-05-15T21:08:23.448Z,68.23
2023-05-15T21:10:58.510Z,67.97
2023-05-15T21:13:33.025Z,68.05
2023-05-15T21:16:08.792Z,67.69
2023-05-15T21:18:43.504Z,67.79
2023-05-15T21:21:09.216Z,67.61
2023-05-15T21:23:42.994Z,67.85
2023-05-15T21:26:16.657Z,67.57
2023-05-15T21:28:50.665Z,67.09
2023-05-15T21:31:24.440Z,66.90
2023-05-15T21:33:57.793Z,66.73
2023-05-15T21:36:32.378Z,66.57
2023-05-15T21:38:59.801Z,66.41
2023-05-15T21:41:35.592Z,66.84
2023-05-15T21:44:09.220Z,66.73
2023-05-15T21:46:43.076Z,65.74
2023-05-15T21:49:05.861Z,64.32
2023-05-15T21:51:39.973Z,64.52
2023-05-15T21:54:13.663Z,63.25
2023-05-15T21:56:48.077Z,62.95
2023-05-15T21:59:22.734Z,62.12
2023-05-15T22:01:45.837Z,61.85
2023-05-15T22:04:19.809Z,62.09
2023-05-15T22:06:58.808Z,62.22
2023-05-15T22:09:32.969Z,62.78
2023-05-15T22:12:07.258Z,63.39
2023-05-15T22:14:54.569Z,63.77
2023-05-15T22:17:26.602Z,63.71
2023-05-15T22:20:08.422Z,63.54
2023-05-15T22:22:46.566Z,63.19
2023-05-15T22:25:21.598Z,62.91
2023-05-15T22:27:55.621Z,63.11
2023-05-15T22:30:29.930Z,63.62
2023-05-15T22:33:02.988Z,63.79
2023-05-15T22:35:38.253Z,63.95
2023-05-15T22:38:12.687Z,64.16
2023-05-15T22:40:46.059Z,64.17
2023-05-15T22:43:20.438Z,63.43
2023-05-15T22:45:55.837Z,63.30
2023-05-15T22:48:30.106Z,63.37
2023-05-15T22:51:03.667Z,63.84
2023-05-15T22:53:39.720Z,63.63
2023-05-15T22:56:15.221Z,63.61
2023-05-15T22:58:49.305Z,63.67
2023-05-15T23:01:23.692Z,63.65
2023-05-15T23:03:57.107Z,63.95
2023-05-15T23:06:35.907Z,64.37
2023-05-15T23:09:10.117Z,64.69
2023-05-15T23:11:44.979Z,64.97
2023-05-15T23:14:18.757Z,65.13
2023-05-15T23:22:29.074Z,66.18
2023-05-15T23:25:03.324Z,65.99
2023-05-15T23:27:36.418Z,66.28
2023-05-15T23:30:13.025Z,66.34
2023-05-15T23:32:46.966Z,66.43
2023-05-15T23:35:24.573Z,67.02
2023-05-15T23:37:58.271Z,66.94
2023-05-15T23:40:19.599Z,67.09
2023-05-15T23:42:42.248Z,67.24
2023-05-15T23:45:18.691Z,67.47
2023-05-15T23:47:54.004Z,67.63
2023-05-15T23:50:28.443Z,68.12
2023-05-15T23:53:03.075Z,68.37
2023-05-15T23:55:38.843Z,68.65
2023-05-15T23:58:13.082Z,68.80
